createdAt,value
2023-02-22T06:39:34.178Z,99296.04
2023-02-22T06:41:40.617Z,99298.49
2023-02-22T06:43:47.096Z,99298.00
2023-02-22T06:45:51.959Z,99295.61
2023-02-22T06:47:56.723Z,99295.23
2023-02-22T06:50:01.755Z,99300.23
2023-02-22T06:52:09.189Z,99296.27
2023-02-22T06:54:14.514Z,99300.77
2023-02-22T06:56:19.632Z,99299.04
2023-02-22T06:58:24.465Z,99298.84
2023-02-22T07:00:30.542Z,99299.73
2023-02-22T07:02:35.258Z,99298.77
2023-02-22T07:04:43.275Z,99296.85
2023-02-22T07:06:49.395Z,99297.38
2023-02-22T07:08:54.212Z,99299.98
2023-02-22T07:10:59.059Z,99301.19
2023-02-22T07:13:04.985Z,99301.68
2023-02-22T07:15:10.698Z,99304.75
2023-02-22T07:17:15.664Z,99306.55
2023-02-22T07:19:20.351Z,99303.74
2023-02-22T07:21:25.143Z,99304.55
2023-02-22T07:23:29.885Z,99303.40
2023-02-22T07:25:34.830Z,99306.50
2023-02-22T07:27:40.547Z,99305.39
2023-02-22T07:29:45.681Z,99306.53
2023-02-22T07:31:50.744Z,99305.80
2023-02-22T07:33:55.592Z,99300.36
2023-02-22T07:36:00.243Z,99298.92
2023-02-22T07:38:05.723Z,99297.95
2023-02-22T07:40:12.234Z,99294.45
2023-02-22T07:42:16.986Z,99298.44
2023-02-22T07:44:23.386Z,99295.58
2023-02-22T07:46:28.141Z,99297.62
2023-02-22T07:48:33.518Z,99297.02
2023-02-22T07:50:38.869Z,99297.68
2023-02-22T07:52:47.277Z,99294.05
2023-02-22T07:54:52.191Z,99294.20
2023-02-22T07:56:57.074Z,99292.96
2023-02-22T07:59:02.046Z,99295.18
2023-02-22T08:01:06.997Z,99290.38
2023-02-22T08:03:13.581Z,99289.24
2023-02-22T08:05:19.929Z,99286.09
2023-02-22T08:07:24.576Z,99284.30
2023-02-22T08:09:29.398Z,99285.36
2023-02-22T08:11:34.167Z,99282.48
2023-02-22T08:13:40.031Z,99286.61
2023-02-22T08:15:48.269Z,99283.98
2023-02-22T08:17:53.171Z,99284.89
2023-02-22T08:19:57.892Z,99281.02
2023-02-22T08:22:02.797Z,99286.16
2023-02-22T08:24:08.364Z,99284.70
2023-02-22T08:26:13.649Z,99280.20
2023-02-22T08:28:21.009Z,99279.23
2023-02-22T08:30:27.115Z,99279.30
2023-02-22T08:32:31.951Z,99276.45
2023-02-22T08:34:36.739Z,99276.52
2023-02-22T08:36:44.730Z,99279.20
2023-02-22T08:38:49.516Z,99278.17
2023-02-22T08:40:54.852Z,99274.84
2023-02-22T08:43:00.207Z,99277.31
2023-02-22T08:45:05.654Z,99278.26
2023-02-22T08:47:10.334Z,99274.95
2023-02-22T08:49:15.192Z,99272.25
2023-02-22T08:51:20.288Z,99276.19
2023-02-22T08:53:25.094Z,99277.23
2023-02-22T08:55:32.362Z,99274.70
2023-02-22T08:57:37.193Z,99273.45
2023-02-22T08:59:41.896Z,99269.83
2023-02-22T09:01:46.723Z,99271.39
2023-02-22T09:03:51.807Z,99271.88
2023-02-22T09:05:56.926Z,99269.95
2023-02-22T09:08:01.783Z,99268.81
2023-02-22T09:10:08.246Z,99269.31
2023-02-22T09:12:12.970Z,99270.80
2023-02-22T09:14:17.875Z,99269.84
2023-02-22T09:16:22.898Z,99269.13
2023-02-22T09:18:39.138Z,99270.42
2023-02-22T09:20:48.987Z,99271.63
2023-02-22T09:22:54.714Z,99270.34
2023-02-22T09:25:02.637Z,99272.39
2023-02-22T09:27:12.672Z,99264.42
2023-02-22T09:29:17.492Z,99265.45
2023-02-22T09:31:22.651Z,99261.54
2023-02-22T09:33:27.723Z,99264.84
2023-02-22T09:35:33.049Z,99262.38
2023-02-22T09:37:37.789Z,99261.85
2023-02-22T09:39:42.618Z,99261.38
2023-02-22T09:41:54.655Z,99262.06
2023-02-22T09:44:16.547Z,99258.91
2023-02-22T09:46:27.275Z,99260.44
2023-02-22T09:48:36.366Z,99261.37
2023-02-22T09:50:44.458Z,99258.56
2023-02-22T09:52:59.484Z,99256.08
2023-02-22T09:55:12.713Z,99254.00
2023-02-22T09:57:23.208Z,99248.39
2023-02-22T09:59:31.987Z,99249.61
2023-02-22T10:01:42.167Z,99244.80
2023-02-22T10:03:54.065Z,99244.62
2023-02-22T10:06:03.868Z,99246.10
2023-02-22T10:08:12.716Z,99246.63
2023-02-22T10:10:21.036Z,99246.44
2023-02-22T10:12:36.422Z,99242.56
2023-02-22T10:14:55.091Z,99242.05
2023-02-22T10:17:14.464Z,99239.70
2023-02-22T10:19:27.388Z,99233.20
2023-02-22T10:21:47.334Z,99233.77
2023-02-22T10:24:03.354Z,99228.77
2023-02-22T10:26:20.128Z,99232.98
2023-02-22T10:28:28.793Z,99231.32
2023-02-22T10:30:37.586Z,99229.98
2023-02-22T10:32:45.430Z,99227.69
2023-02-22T10:34:53.774Z,99226.06
2023-02-22T10:37:17.559Z,99224.84
2023-02-22T10:39:28.720Z,99219.47
2023-02-22T10:41:38.406Z,99220.23
2023-02-22T10:43:44.731Z,99220.19
2023-02-22T10:45:51.003Z,99222.21
2023-02-22T10:47:59.536Z,99217.39
2023-02-22T10:50:06.394Z,99215.16
2023-02-22T10:52:19.341Z,99214.86
2023-02-22T10:54:28.972Z,99212.41
2023-02-22T10:56:33.857Z,99211.54
2023-02-22T10:58:50.172Z,99207.05
2023-02-22T11:00:55.322Z,99203.52
2023-02-22T11:03:02.480Z,99206.27
2023-02-22T11:05:25.757Z,99201.02
2023-02-22T11:07:32.425Z,99201.60
2023-02-22T11:09:48.794Z,99203.84
2023-02-22T11:12:10.102Z,99198.84
2023-02-22T11:14:26.102Z,99194.48
2023-02-22T11:16:34.604Z,99190.94
2023-02-22T11:18:39.847Z,99193.96
2023-02-22T11:20:44.696Z,99190.76
2023-02-22T11:22:52.862Z,99185.76
2023-02-22T11:25:01.245Z,99184.14
2023-02-22T11:27:06.411Z,99182.77
2023-02-22T11:29:22.075Z,99183.29
2023-02-22T11:31:29.730Z,99178.97
2023-02-22T11:33:34.876Z,99174.73
2023-02-22T11:35:49.343Z,99174.65
2023-02-22T11:37:54.343Z,99173.96
2023-02-22T11:40:17.455Z,99172.84
2023-02-22T11:42:27.492Z,99170.98
2023-02-22T11:44:33.272Z,99167.10
2023-02-22T11:46:42.793Z,99165.05
2023-02-22T11:49:00.565Z,99161.48
2023-02-22T11:51:16.867Z,99164.47
2023-02-22T11:53:31.866Z,99161.11
2023-02-22T11:55:44.372Z,99157.44
2023-02-22T11:58:00.485Z,99157.13
2023-02-22T12:00:17.768Z,99156.52
2023-02-22T12:02:43.687Z,99153.18
2023-02-22T12:05:21.149Z,99154.40
2023-02-22T12:07:45.312Z,99147.52
2023-02-22T12:09:57.726Z,99144.90
2023-02-22T12:12:16.505Z,99146.78
2023-02-22T12:14:31.167Z,99142.94
2023-02-22T12:16:49.213Z,99137.75
2023-02-22T12:19:07.776Z,99136.08
2023-02-22T12:21:17.608Z,99135.33
2023-02-22T12:23:28.897Z,99137.95
2023-02-22T12:25:37.174Z,99136.92
2023-02-22T12:27:47.021Z,99131.34
2023-02-22T12:29:55.830Z,99129.80
2023-02-22T12:32:04.941Z,99125.13
2023-02-22T12:34:17.815Z,99118.02
2023-02-22T12:36:25.560Z,99116.88
2023-02-22T12:38:35.985Z,99118.28
2023-02-22T12:40:47.079Z,99114.27
2023-02-22T12:43:03.309Z,99114.02
2023-02-22T12:45:12.795Z,99112.21
2023-02-22T12:47:22.583Z,99106.61
2023-02-22T12:49:36.003Z,99102.95
2023-02-22T12:51:49.745Z,99106.73
2023-02-22T12:54:01.872Z,99102.03
2023-02-22T12:56:23.892Z,99101.34
2023-02-22T12:58:35.032Z,99096.20
2023-02-22T13:00:45.116Z,99094.53
2023-02-22T13:02:58.567Z,99093.55
2023-02-22T13:05:03.539Z,99093.86
2023-02-22T13:07:23.280Z,99086.41
2023-02-22T13:09:54.239Z,99082.19
2023-02-22T13:12:08.196Z,99084.80
2023-02-22T13:14:35.584Z,99080.14
2023-02-22T13:16:47.360Z,99083.20
2023-02-22T13:19:01.073Z,99080.58
2023-02-22T13:21:12.051Z,99078.84
2023-02-22T13:23:23.887Z,99074.16
2023-02-22T13:25:35.421Z,99074.81
2023-02-22T13:27:48.547Z,99078.11
2023-02-22T13:29:58.096Z,99077.73
2023-02-22T13:32:19.882Z,99075.59
2023-02-22T13:34:49.761Z,99078.45
2023-02-22T13:37:11.417Z,99072.12
2023-02-22T13:39:35.590Z,99072.07
2023-02-22T13:41:57.688Z,99069.07
2023-02-22T13:44:31.073Z,99069.79
2023-02-22T13:47:18.824Z,99069.02
2023-02-22T13:49:41.355Z,99066.65
2023-02-22T13:51:53.918Z,99066.89
2023-02-22T13:54:07.554Z,99063.79
2023-02-22T13:56:19.415Z,99062.25
2023-02-22T13:58:26.608Z,99060.25
2023-02-22T14:00:48.767Z,99062.16
2023-02-22T14:03:08.694Z,99057.73
2023-02-22T14:05:51.872Z,99058.16
2023-02-22T14:07:57.129Z,99056.67
2023-02-22T14:10:01.933Z,99057.48
2023-02-22T14:12:07.107Z,99056.86
2023-02-22T14:14:19.122Z,99055.52
2023-02-22T14:16:27.933Z,99051.97
2023-02-22T14:18:40.944Z,99047.48
2023-02-22T14:20:46.146Z,99048.02
2023-02-22T14:22:52.083Z,99044.56
2023-02-22T14:24:59.062Z,99045.05
2023-02-22T14:27:05.314Z,99044.29
2023-02-22T14:29:19.094Z,99040.55
2023-02-22T14:31:36.016Z,99037.77
2023-02-22T14:34:11.337Z,99039.16
2023-02-22T14:36:19.758Z,99040.05
2023-02-22T14:38:25.681Z,99043.36
2023-02-22T14:40:34.521Z,99039.33
2023-02-22T14:42:42.924Z,99036.65
2023-02-22T14:45:00.354Z,99037.49
2023-02-22T14:47:08.081Z,99037.86
2023-02-22T14:49:17.052Z,99037.02
2023-02-22T14:51:27.047Z,99040.86
2023-02-22T14:53:37.570Z,99039.83
2023-02-22T14:55:46.612Z,99043.60
2023-02-22T14:58:05.162Z,99045.27
2023-02-22T15:00:17.508Z,99040.52
2023-02-22T15:02:25.140Z,99039.10
2023-02-22T15:04:31.242Z,99041.76
2023-02-22T15:06:36.004Z,99040.02
2023-02-22T15:08:41.283Z,99040.79
2023-02-22T15:10:51.421Z,99039.30
2023-02-22T15:12:59.983Z,99040.55
2023-02-22T15:15:17.453Z,99037.64
2023-02-22T15:17:24.504Z,99039.34
2023-02-22T15:19:33.312Z,99038.77
2023-02-22T15:21:44.586Z,99037.37
2023-02-22T15:23:55.738Z,99035.86
2023-02-22T15:26:01.816Z,99036.73
2023-02-22T15:28:10.543Z,99037.46
2023-02-22T15:30:23.847Z,99038.38
2023-02-22T15:32:34.679Z,99035.73
2023-02-22T15:34:39.765Z,99039.55
2023-02-22T15:36:46.355Z,99036.10
2023-02-22T15:38:57.964Z,99035.52
2023-02-22T15:41:05.324Z,99033.94
2023-02-22T15:43:19.013Z,99032.77
2023-02-22T15:45:26.982Z,99030.64
2023-02-22T15:47:32.314Z,99036.48
2023-02-22T15:49:37.043Z,99036.49
2023-02-22T15:51:43.817Z,99036.31
2023-02-22T15:53:50.822Z,99039.31
2023-02-22T15:56:00.029Z,99036.52
2023-02-22T15:58:19.488Z,99039.64
2023-02-22T16:00:28.940Z,99037.71
2023-02-22T16:02:37.680Z,99037.88
2023-02-22T16:04:48.528Z,99038.54
2023-02-22T16:07:09.158Z,99034.54
2023-02-22T16:09:15.947Z,99036.92
2023-02-22T16:11:26.964Z,99037.23
2023-02-22T16:13:35.377Z,99034.86
2023-02-22T16:15:40.090Z,99034.65
2023-02-22T16:18:00.919Z,99036.46
2023-02-22T16:20:36.739Z,99041.92
2023-02-22T16:22:42.965Z,99041.02
2023-02-22T16:24:50.536Z,99043.79
2023-02-22T16:27:15.430Z,99048.20
2023-02-22T16:29:28.723Z,99051.92
2023-02-22T16:31:39.711Z,99055.73
2023-02-22T16:33:45.633Z,99052.99
2023-02-22T16:35:51.705Z,99057.33
2023-02-22T16:38:00.971Z,99056.42
2023-02-22T16:40:07.468Z,99055.81
2023-02-22T16:42:18.091Z,99060.52
2023-02-22T16:44:24.215Z,99062.98
2023-02-22T16:46:29.926Z,99064.09
2023-02-22T16:48:41.415Z,99065.00
2023-02-22T16:50:46.512Z,99070.33
2023-02-22T16:52:55.898Z,99070.85
2023-02-22T16:55:05.259Z,99070.63
2023-02-22T16:57:19.584Z,99073.65
2023-02-22T16:59:24.797Z,99073.67
2023-02-22T17:01:29.697Z,99076.05
2023-02-22T17:03:37.107Z,99075.98
2023-02-22T17:05:45.220Z,99081.02
2023-02-22T17:07:51.134Z,99078.25
2023-02-22T17:09:56.228Z,99079.02
2023-02-22T17:12:03.999Z,99084.02
2023-02-22T17:14:10.903Z,99083.80
2023-02-22T17:16:21.555Z,99082.63
2023-02-22T17:18:29.141Z,99087.26
2023-02-22T17:20:34.018Z,99085.06
2023-02-22T17:22:43.060Z,99084.06
2023-02-22T17:24:48.200Z,99091.27
2023-02-22T17:26:55.273Z,99092.52
2023-02-22T17:29:00.638Z,99087.48
2023-02-22T17:31:06.840Z,99086.83
2023-02-22T17:33:19.596Z,99089.23
2023-02-22T17:35:24.521Z,99091.63
2023-02-22T17:37:31.413Z,99090.80
2023-02-22T17:39:37.063Z,99090.27
2023-02-22T17:41:42.504Z,99092.83
2023-02-22T17:43:47.973Z,99090.34
2023-02-22T17:46:08.596Z,99088.20
2023-02-22T17:48:14.952Z,99087.51
2023-02-22T17:50:22.173Z,99085.83
2023-02-22T17:52:27.830Z,99086.40
2023-02-22T17:54:36.244Z,99082.00
2023-02-22T17:56:43.633Z,99080.84
2023-02-22T17:58:51.304Z,99084.04
2023-02-22T18:00:58.558Z,99084.98
2023-02-22T18:03:06.820Z,99084.12
2023-02-22T18:05:15.342Z,99084.30
2023-02-22T18:07:21.100Z,99084.98
2023-02-22T18:09:27.701Z,99086.15
2023-02-22T18:11:33.243Z,99084.40
2023-02-22T18:13:42.908Z,99083.27
2023-02-22T18:15:50.532Z,99084.20
2023-02-22T18:17:57.185Z,99083.63
2023-02-22T18:20:03.914Z,99082.33
2023-02-22T18:22:10.561Z,99084.77
2023-02-22T18:24:17.339Z,99081.13
2023-02-22T18:26:25.337Z,99080.67
2023-02-22T18:28:33.365Z,99083.90
2023-02-22T18:30:40.387Z,99082.93
2023-02-22T18:32:48.920Z,99079.08
2023-02-22T18:34:57.653Z,99079.33
2023-02-22T18:37:05.113Z,99079.71
2023-02-22T18:39:13.289Z,99080.23
2023-02-22T18:41:21.748Z,99079.16
2023-02-22T18:43:27.771Z,99078.61
2023-02-22T18:45:35.146Z,99078.99
2023-02-22T18:47:45.311Z,99081.14
2023-02-22T18:49:52.660Z,99078.84
2023-02-22T18:51:59.997Z,99080.31
2023-02-22T18:54:08.949Z,99076.65
2023-02-22T18:56:19.734Z,99075.13
2023-02-22T18:58:28.115Z,99076.86
2023-02-22T19:00:38.003Z,99076.02
2023-02-22T19:02:45.796Z,99079.29
2023-02-22T19:04:51.529Z,99077.92
2023-02-22T19:06:58.360Z,99078.55
2023-02-22T19:09:08.538Z,99074.91
2023-02-22T19:11:18.119Z,99075.37
2023-02-22T19:13:26.487Z,99076.09
2023-02-22T19:15:36.493Z,99077.11
2023-02-22T19:17:44.753Z,99076.07
2023-02-22T19:19:52.038Z,99073.73
2023-02-22T19:21:58.193Z,99071.50
2023-02-22T19:24:06.128Z,99071.25
2023-02-22T19:26:18.478Z,99072.36
2023-02-22T19:28:23.704Z,99071.14
2023-02-22T19:30:32.582Z,99071.20
2023-02-22T19:32:39.994Z,99067.48
2023-02-22T19:34:51.435Z,99069.52
2023-02-22T19:37:01.386Z,99071.42
2023-02-22T19:39:11.988Z,99068.03
2023-02-22T19:41:23.308Z,99067.02
2023-02-22T19:43:30.175Z,99073.18
2023-02-22T19:45:48.018Z,99076.83
2023-02-22T19:47:59.042Z,99075.30
2023-02-22T19:50:07.229Z,99078.50
2023-02-22T19:52:20.761Z,99081.57
2023-02-22T19:54:29.111Z,99079.62
2023-02-22T19:56:48.665Z,99083.64
2023-02-22T19:58:59.714Z,99084.71
2023-02-22T20:01:12.504Z,99084.96
2023-02-22T20:03:23.314Z,99086.12
2023-02-22T20:05:30.178Z,99084.41
2023-02-22T20:07:37.403Z,99086.80
2023-02-22T20:09:45.116Z,99090.34
2023-02-22T20:12:01.596Z,99091.89
2023-02-22T20:14:12.216Z,99095.34
2023-02-22T20:16:17.932Z,99096.89
2023-02-22T20:18:26.280Z,99098.33
2023-02-22T20:20:35.297Z,99100.48
2023-02-22T20:22:43.081Z,99098.51
2023-02-22T20:24:52.272Z,99102.19
2023-02-22T20:27:00.271Z,99101.23
2023-02-22T20:29:08.225Z,99108.98
2023-02-22T20:31:18.297Z,99106.98
2023-02-22T20:33:28.076Z,99108.94
2023-02-22T20:35:40.801Z,99111.31
2023-02-22T20:38:00.692Z,99108.66
2023-02-22T20:40:08.338Z,99106.80
2023-02-22T20:42:20.462Z,99110.27
2023-02-22T20:44:29.709Z,99109.84
2023-02-22T20:46:36.407Z,99109.31
2023-02-22T20:48:43.631Z,99106.40
2023-02-22T20:50:57.138Z,99108.81
2023-02-22T20:53:05.933Z,99109.27
2023-02-22T20:55:12.892Z,99108.88
2023-02-22T20:57:19.650Z,99105.06
2023-02-22T20:59:25.832Z,99108.54
2023-02-22T21:01:32.248Z,99103.38
2023-02-22T21:03:39.699Z,99103.38
2023-02-22T21:05:50.024Z,99104.23
2023-02-22T21:07:56.727Z,99102.52
2023-02-22T21:10:03.377Z,99101.29
2023-02-22T21:12:10.988Z,99100.13
2023-02-22T21:14:19.243Z,99100.69
2023-02-22T21:16:28.287Z,99100.20
2023-02-22T21:18:37.958Z,99098.19
2023-02-22T21:20:43.742Z,99097.61
2023-02-22T21:22:50.159Z,99095.52
2023-02-22T21:24:57.615Z,99094.48
2023-02-22T21:27:04.689Z,99096.65
2023-02-22T21:29:10.753Z,99095.09
2023-02-22T21:31:18.284Z,99090.13
2023-02-22T21:33:24.771Z,99090.98
2023-02-22T21:35:34.833Z,99093.47
2023-02-22T21:37:41.896Z,99094.86
2023-02-22T21:39:47.566Z,99087.02
2023-02-22T21:41:53.336Z,99089.91
2023-02-22T21:44:04.582Z,99094.37
2023-02-22T21:46:10.774Z,99090.30
2023-02-22T21:48:15.828Z,99088.30
2023-02-22T21:50:21.677Z,99086.48
2023-02-22T21:52:28.398Z,99087.22
2023-02-22T21:54:34.220Z,99090.58
2023-02-22T21:56:42.206Z,99086.61
2023-02-22T21:58:47.370Z,99089.93
2023-02-22T22:00:52.073Z,99091.30
2023-02-22T22:02:58.698Z,99086.97
2023-02-22T22:05:03.510Z,99085.04
2023-02-22T22:07:08.232Z,99083.28
2023-02-22T22:09:15.861Z,99082.19
2023-02-22T22:11:21.584Z,99079.83
2023-02-22T22:13:26.972Z,99081.95
2023-02-22T22:15:33.156Z,99078.00
2023-02-22T22:17:37.898Z,99079.96
2023-02-22T22:19:43.136Z,99078.20
2023-02-22T22:21:48.387Z,99082.45
2023-02-22T22:23:54.491Z,99079.59
2023-02-22T22:26:03.872Z,99074.27
2023-02-22T22:28:09.877Z,99074.71
2023-02-22T22:30:15.201Z,99072.76
2023-02-22T22:32:19.941Z,99072.42
2023-02-22T22:34:24.716Z,99070.96
2023-02-22T22:36:29.537Z,99071.40
2023-02-22T22:38:34.411Z,99073.46
2023-02-22T22:40:39.169Z,99068.02
2023-02-22T22:42:45.252Z,99070.26
2023-02-22T22:44:50.407Z,99071.55
2023-02-22T22:46:55.172Z,99071.20
2023-02-22T22:48:59.887Z,99072.42
2023-02-22T22:51:07.114Z,99070.29
2023-02-22T22:53:11.787Z,99069.64
2023-02-22T22:55:17.030Z,99071.94
2023-02-22T22:57:21.776Z,99073.47
2023-02-22T22:59:26.502Z,99070.27
2023-02-22T23:01:31.763Z,99069.39
2023-02-22T23:03:36.494Z,99069.26
2023-02-22T23:05:42.606Z,99072.16
2023-02-22T23:07:48.426Z,99070.33
2023-02-22T23:09:53.250Z,99067.45
2023-02-22T23:11:59.853Z,99068.42
2023-02-22T23:14:07.747Z,99076.14
2023-02-22T23:16:12.471Z,99070.77
2023-02-22T23:18:17.469Z,99072.92
2023-02-22T23:20:22.717Z,99074.97
2023-02-22T23:22:27.388Z,99074.11
2023-02-22T23:24:32.958Z,99072.19
2023-02-22T23:26:37.595Z,99071.65
2023-02-22T23:28:49.100Z,99072.23
2023-02-22T23:30:53.873Z,99071.73
2023-02-22T23:32:58.586Z,99069.54
2023-02-22T23:35:03.320Z,99067.77
2023-02-22T23:37:07.982Z,99065.46
2023-02-22T23:39:14.037Z,99068.98
2023-02-22T23:41:19.301Z,99066.91
2023-02-22T23:43:24.186Z,99065.57
2023-02-22T23:45:28.919Z,99065.23
2023-02-22T23:47:34.853Z,99065.29
2023-02-22T23:49:39.524Z,99063.88
2023-02-22T23:51:44.700Z,99066.87
2023-02-22T23:53:49.455Z,99064.16
2023-02-22T23:55:54.131Z,99069.16
2023-02-22T23:57:59.392Z,99066.92
